XAHHH MMMZ-KSAN
Flight info
| Callsign | XAHHH |
|---|---|
| Flight time | N/A |
| Altitude | 38000 |
| Route | PALIA4 PALIA UJ3 TIJ |
| Aircraft | A20N/M-SDE2E3FGHIRWXY/LB1 |
Departure
| Time | 2026-04-20 18:01 |
|---|---|
| Airport | General Rafael Buelna International Airport (MMMZ) |
Arrival
| Time | N/A |
|---|---|
| Airport | San Diego International Airport (KSAN) |
| Time | Latitude | Longitude | Altitude | Speed | Heading |
|---|---|---|---|---|---|
| 2026-04-20 17:57 | 23.16257 | -106.26798 | 34 ft | 2 kts | 125° |
| 2026-04-20 17:57 | 23.16085 | -106.25174 | 47 ft | 0 kts | 273° |
| 2026-04-20 18:00 | 23.16085 | -106.25185 | 47 ft | 14 kts | 273° |
| 2026-04-20 18:00 | 23.16105 | -106.25582 | 45 ft | 90 kts | 273° |
| 2026-04-20 18:00 | 23.16148 | -106.26540 | 87 ft | 156 kts | 272° |
| 2026-04-20 18:01 | 23.16182 | -106.27788 | 572 ft | 179 kts | 272° |
| 2026-04-20 18:01 | 23.16242 | -106.29193 | 1326 ft | 191 kts | 272° |
| 2026-04-20 18:01 | 23.16311 | -106.30745 | 1812 ft | 222 kts | 272° |
| 2026-04-20 18:01 | 23.16389 | -106.32559 | 2245 ft | 252 kts | 271° |
| 2026-04-20 18:02 | 23.16474 | -106.34533 | 2922 ft | 269 kts | 271° |
| 2026-04-20 18:02 | 23.16561 | -106.36571 | 3839 ft | 275 kts | 271° |
| 2026-04-20 18:02 | 23.16651 | -106.38660 | 4928 ft | 276 kts | 270° |
| 2026-04-20 18:02 | 23.16740 | -106.40748 | 6017 ft | 276 kts | 270° |
| 2026-04-20 18:03 | 23.16813 | -106.42128 | 6673 ft | 278 kts | 274° |
| 2026-04-20 18:03 | 23.17568 | -106.44825 | 7702 ft | 285 kts | 301° |
| 2026-04-20 18:03 | 23.18949 | -106.46354 | 8319 ft | 293 kts | 327° |
| 2026-04-20 18:04 | 23.23116 | -106.46771 | 9659 ft | 306 kts | 23° |
| 2026-04-20 18:04 | 23.24857 | -106.45444 | 10229 ft | 311 kts | 47° |
| 2026-04-20 18:04 | 23.26377 | -106.43774 | 10368 ft | 305 kts | 40° |
| 2026-04-20 18:04 | 23.27950 | -106.42298 | 10267 ft | 293 kts | 43° |
| 2026-04-20 18:05 | 23.32421 | -106.39015 | 9880 ft | 267 kts | 15° |
| 2026-04-20 18:05 | 23.34226 | -106.38659 | 9603 ft | 262 kts | 1° |
| 2026-04-20 18:06 | 23.36007 | -106.38770 | 9308 ft | 257 kts | 347° |
| 2026-04-20 18:06 | 23.37710 | -106.39319 | 8999 ft | 254 kts | 333° |
| 2026-04-20 18:06 | 23.39334 | -106.40356 | 9097 ft | 284 kts | 320° |
| 2026-04-20 18:06 | 23.40750 | -106.41862 | 9593 ft | 292 kts | 305° |
| 2026-04-20 18:07 | 23.41804 | -106.43766 | 10202 ft | 294 kts | 290° |
| 2026-04-20 18:07 | 23.42492 | -106.45928 | 10512 ft | 309 kts | 283° |
| 2026-04-20 18:07 | 23.43061 | -106.48229 | 10757 ft | 326 kts | 282° |
| 2026-04-20 18:07 | 23.43644 | -106.50663 | 11208 ft | 334 kts | 282° |
| 2026-04-20 18:08 | 23.44240 | -106.53126 | 11802 ft | 337 kts | 282° |
| 2026-04-20 18:08 | 23.44841 | -106.55575 | 12434 ft | 339 kts | 282° |
| 2026-04-20 18:08 | 23.45576 | -106.58035 | 13101 ft | 344 kts | 291° |
| 2026-04-20 18:08 | 23.46833 | -106.60279 | 13791 ft | 351 kts | 306° |
| 2026-04-20 18:09 | 23.48480 | -106.62232 | 14426 ft | 355 kts | 310° |
| 2026-04-20 18:09 | 23.50242 | -106.64140 | 15103 ft | 356 kts | 311° |
| 2026-04-20 18:09 | 23.52019 | -106.66044 | 15754 ft | 358 kts | 311° |
| 2026-04-20 18:09 | 23.53800 | -106.67958 | 16374 ft | 360 kts | 311° |
| 2026-04-20 18:10 | 23.55569 | -106.69868 | 16982 ft | 362 kts | 310° |
| 2026-04-20 18:10 | 23.57363 | -106.71813 | 17594 ft | 364 kts | 310° |
| 2026-04-20 18:10 | 23.59162 | -106.73769 | 18195 ft | 366 kts | 310° |
| 2026-04-20 18:10 | 23.60981 | -106.75749 | 18715 ft | 369 kts | 310° |
| 2026-04-20 18:11 | 23.62800 | -106.77732 | 19233 ft | 371 kts | 310° |
| 2026-04-20 18:11 | 23.64608 | -106.79703 | 19746 ft | 372 kts | 310° |
| 2026-04-20 18:11 | 23.66450 | -106.81712 | 20280 ft | 374 kts | 310° |
| 2026-04-20 18:11 | 23.68304 | -106.83734 | 20795 ft | 376 kts | 310° |
| 2026-04-20 18:12 | 23.70142 | -106.85740 | 21297 ft | 378 kts | 310° |
| 2026-04-20 18:12 | 23.73890 | -106.89831 | 22301 ft | 382 kts | 310° |
| 2026-04-20 18:12 | 23.75780 | -106.91897 | 22792 ft | 384 kts | 310° |
| 2026-04-20 18:13 | 23.77666 | -106.93956 | 23504 ft | 379 kts | 310° |
| 2026-04-20 18:13 | 23.79489 | -106.95942 | 24238 ft | 370 kts | 310° |
| 2026-04-20 18:13 | 23.81276 | -106.97888 | 25131 ft | 355 kts | 310° |
| 2026-04-20 18:13 | 23.82997 | -106.99761 | 26091 ft | 339 kts | 310° |
| 2026-04-20 18:14 | 23.84626 | -107.01534 | 27077 ft | 320 kts | 310° |
| 2026-04-20 18:14 | 23.86141 | -107.03185 | 28084 ft | 299 kts | 309° |
| 2026-04-20 18:14 | 23.87559 | -107.04729 | 29131 ft | 274 kts | 309° |
| 2026-04-20 18:14 | 23.88836 | -107.06115 | 30178 ft | 242 kts | 308° |
| 2026-04-20 18:15 | 23.89958 | -107.07327 | 30830 ft | 218 kts | 308° |
| 2026-04-20 18:15 | 23.91033 | -107.08518 | 30558 ft | 232 kts | 307° |
| 2026-04-20 18:15 | 23.92234 | -107.09923 | 29033 ft | 281 kts | 306° |
| 2026-04-20 18:15 | 23.93527 | -107.11649 | 28864 ft | 286 kts | 303° |
| 2026-04-20 18:16 | 23.94696 | -107.13475 | 28814 ft | 298 kts | 297° |
| 2026-04-20 18:16 | 23.95791 | -107.15436 | 28675 ft | 314 kts | 297° |
| 2026-04-20 18:16 | 23.96953 | -107.17534 | 28506 ft | 330 kts | 297° |
| 2026-04-20 18:16 | 23.98169 | -107.19743 | 28373 ft | 345 kts | 298° |
| 2026-04-20 18:17 | 23.99655 | -107.21870 | 28284 ft | 362 kts | 308° |
| 2026-04-20 18:17 | 24.01446 | -107.23873 | 28392 ft | 372 kts | 311° |
| 2026-04-20 18:17 | 24.03373 | -107.25836 | 28527 ft | 380 kts | 313° |
| 2026-04-20 18:17 | 24.05331 | -107.27788 | 28654 ft | 387 kts | 313° |
| 2026-04-20 18:18 | 24.07332 | -107.29807 | 28778 ft | 393 kts | 312° |
| 2026-04-20 18:18 | 24.09348 | -107.31887 | 28897 ft | 399 kts | 311° |
| 2026-04-20 18:18 | 24.11341 | -107.33984 | 29197 ft | 400 kts | 311° |
| 2026-04-20 18:18 | 24.13327 | -107.36100 | 29811 ft | 394 kts | 311° |
| 2026-04-20 18:19 | 24.15274 | -107.38187 | 30409 ft | 387 kts | 311° |
| 2026-04-20 18:19 | 24.17153 | -107.40211 | 30948 ft | 379 kts | 311° |
| 2026-04-20 18:19 | 24.19024 | -107.42230 | 31531 ft | 371 kts | 311° |
| 2026-04-20 18:19 | 24.20854 | -107.44208 | 31922 ft | 369 kts | 311° |
| 2026-04-20 18:20 | 24.22695 | -107.46205 | 32023 ft | 374 kts | 311° |
| 2026-04-20 18:20 | 24.24546 | -107.48216 | 32036 ft | 382 kts | 311° |
| 2026-04-20 18:20 | 24.28404 | -107.52403 | 32035 ft | 397 kts | 311° |
| 2026-04-20 18:21 | 24.32396 | -107.56727 | 32035 ft | 412 kts | 311° |
| 2026-04-20 18:21 | 24.36561 | -107.61237 | 32035 ft | 427 kts | 311° |
| 2026-04-20 18:22 | 24.40848 | -107.65882 | 32031 ft | 440 kts | 311° |
| 2026-04-20 18:22 | 24.45192 | -107.70590 | 32036 ft | 441 kts | 311° |
| 2026-04-20 18:23 | 24.49568 | -107.75336 | 32033 ft | 440 kts | 311° |
| 2026-04-20 18:23 | 24.53895 | -107.80040 | 32037 ft | 439 kts | 311° |
| 2026-04-20 18:24 | 24.58221 | -107.84750 | 32033 ft | 439 kts | 311° |
| 2026-04-20 18:24 | 24.62564 | -107.89483 | 32034 ft | 439 kts | 311° |
| 2026-04-20 18:25 | 24.66883 | -107.94196 | 32031 ft | 438 kts | 311° |
| 2026-04-20 18:25 | 24.71226 | -107.98939 | 32031 ft | 439 kts | 311° |
| 2026-04-20 18:26 | 24.75539 | -108.03653 | 32034 ft | 439 kts | 311° |
| 2026-04-20 18:26 | 24.79877 | -108.08400 | 32033 ft | 439 kts | 311° |
| 2026-04-20 18:27 | 24.84188 | -108.13122 | 32026 ft | 438 kts | 311° |
| 2026-04-20 18:27 | 24.88523 | -108.17876 | 32040 ft | 438 kts | 311° |
| 2026-04-20 18:28 | 24.92822 | -108.22595 | 32032 ft | 438 kts | 311° |
| 2026-04-20 18:28 | 24.96418 | -108.26547 | 32035 ft | 438 kts | 311° |
| 2026-04-20 18:29 | 25.00009 | -108.30497 | 32029 ft | 438 kts | 311° |